Date,TemperatureHighF,TemperatureAvgF,TemperatureLowF,DewpointHighF,DewpointAvgF,DewpointLowF,HumidityHigh,HumidityAvg,HumidityLow,PressureMaxIn,PressureMinIn,WindSpeedMaxMPH,WindSpeedAvgMPH,GustSpeedMaxMPH,PrecipitationSumIn
2013-3-3,68.5,55.0,32.8,47.7,36.7,27.2,82,53,31,30.26,29.82,16,10,0,0.00
2013-3-4,77.0,65.5,51.9,58.6,53.3,43.5,90,66,45,29.96,29.66,17,11,0,0.00
2013-3-5,58.1,48.9,36.5,43.6,29.5,23.2,76,49,29,30.42,30.01,17,8,0,0.00
2013-3-6,59.0,46.3,33.3,41.7,27.0,21.1,83,50,25,30.50,30.23,7,2,0,0.00
2013-3-7,69.9,56.2,42.1,44.6,34.7,25.3,78,46,23,30.31,30.15,10,5,0,0.00
2013-3-8,64.8,59.2,51.1,57.8,53.2,45.2,87,81,74,30.24,29.97,10,5,0,0.00
2013-3-9,71.6,63.8,59.3,63.3,59.2,55.7,89,85,75,29.97,29.71,17,10,19,0.00
2013-3-10,58.7,56.3,54.4,57.2,52.9,47.9,95,89,77,29.88,29.74,9,2,19,0.04
2013-3-15,72.8,67.6,65.3,53.3,49.6,46.7,65,53,40,29.98,29.95,11,6,15,0.00
2013-3-16,65.3,62.2,59.5,53.7,53.3,52.8,81,73,65,29.95,29.92,12,10,20,0.00
2013-3-17,76.2,67.8,58.6,64.5,60.8,54.1,90,79,65,29.81,29.67,12,4,0,0.00
2013-3-18,75.0,65.2,51.1,66.9,55.6,41.7,92,72,53,30.01,29.68,11,5,0,0.00
2013-3-19,69.3,58.4,43.4,51.2,45.6,39.1,87,64,47,30.16,29.98,8,2,0,0.03
2013-3-20,66.4,56.4,48.2,44.4,38.2,30.7,76,53,27,30.31,30.01,10,2,0,0.00
2013-3-21,69.8,60.9,49.3,61.0,48.4,33.9,88,64,46,30.01,29.63,16,8,0,0.00
2013-3-22,71.6,58.9,47.6,65.1,54.2,45.9,94,85,67,29.86,29.61,13,4,0,0.00
2013-3-23,55.3,49.9,47.9,51.0,47.7,46.0,94,92,84,29.88,29.69,7,3,9,0.00
2013-3-24,54.5,46.8,37.6,49.8,37.3,29.0,93,71,43,30.20,29.80,19,6,23,0.00
2013-3-25,55.4,43.4,29.9,31.0,25.4,21.0,75,51,29,30.45,30.21,14,2,0,0.00
2013-3-26,58.8,42.0,27.9,36.0,26.7,21.0,87,58,32,30.56,30.36,6,1,0,0.00
2013-3-27,69.4,53.6,36.7,45.0,35.7,26.0,82,53,31,30.39,30.16,18,5,0,0.00
2013-3-28,70.2,60.5,49.8,59.0,52.5,45.0,86,75,64,30.27,30.13,15,6,0,0.00
2013-3-29,73.6,66.5,58.7,61.0,58.7,56.0,90,76,63,30.22,30.09,15,6,0,0.00
2013-3-30,75.5,66.7,55.9,66.0,61.6,55.0,97,84,71,30.12,29.92,14,3,0,0.44
2013-3-31,73.1,66.3,58.7,65.0,60.9,56.0,95,83,63,30.00,29.86,13,4,13,0.55
2013-4-1,80.5,65.5,49.8,63.0,56.1,49.0,97,75,45,30.09,29.94,7,1,0,0.01
2013-4-2,71.6,64.5,53.6,65.0,60.3,48.0,95,87,74,30.04,29.89,13,4,0,0.39
2013-4-3,52.9,49.1,45.8,49.0,46.8,45.0,96,92,81,30.17,29.97,14,4,0,0.78
2013-4-4,50.3,46.2,42.5,45.0,43.2,41.0,96,89,80,30.23,30.13,8,2,0,0.00
2013-4-5,69.4,54.3,39.1,52.0,46.1,38.0,95,76,49,30.29,30.08,7,1,0,0.00
2013-4-6,74.6,63.3,53.2,60.0,54.7,49.0,88,75,55,30.08,29.88,19,7,0,0.00
2013-4-7,74.5,67.5,58.6,64.0,60.9,56.0,92,80,67,29.96,29.79,21,7,8,0.00
2013-4-8,77.3,70.2,64.2,68.0,63.4,59.0,87,79,70,29.81,29.70,21,7,0,0.00
2013-4-9,83.1,74.2,67.3,69.0,66.6,63.0,90,78,59,29.74,29.64,22,8,0,0.00
2013-4-10,73.2,51.8,39.7,70.0,49.5,38.0,96,91,80,29.98,29.70,13,3,0,0.28
2013-4-11,63.2,48.0,37.7,46.0,40.0,35.0,95,76,51,30.03,29.85,9,1,0,0.13
2013-4-12,76.9,56.8,40.5,56.0,46.7,39.0,96,73,37,30.04,29.90,6,0,0,0.00
2013-4-13,75.5,64.6,49.4,57.0,51.3,46.0,89,64,44,30.03,29.80,7,2,0,0.00
2013-4-14,79.3,67.3,52.6,67.0,59.7,50.0,94,77,62,29.81,29.59,15,6,0,0.00
2013-4-15,84.5,75.1,66.8,72.0,67.9,65.0,96,79,60,29.78,29.64,20,7,0,0.00
2013-4-16,88.2,77.0,71.4,72.0,68.6,65.0,91,76,54,29.91,29.78,13,5,0,0.00
2013-4-17,84.1,76.9,72.4,72.0,70.5,69.0,95,81,65,29.89,29.67,23,8,0,0.00
2013-4-18,74.0,73.5,72.6,71.0,69.3,67.0,94,86,81,29.70,29.59,21,11,0,0.00
2013-4-19,62.7,49.3,36.7,41.2,37.8,33.2,93,68,36,30.31,30.18,6,2,0,0.00
2013-4-20,70.7,57.2,39.5,43.8,40.2,36.1,92,57,31,30.25,30.06,8,4,0,0.00
2013-4-21,72.4,57.9,43.4,54.3,47.1,-99.9,96,71,50,30.23,0.00,7,-9,15,0.00
2013-4-22,77.0,63.6,47.5,62.0,56.3,47.0,98,79,59,30.14,29.88,13,3,0,0.00
2013-4-23,70.9,58.4,44.6,67.0,54.9,43.0,96,88,78,30.17,29.85,15,5,0,0.04
2013-4-24,60.3,49.7,40.3,48.0,42.8,37.0,100,78,57,30.34,30.17,13,3,0,0.29
2013-4-25,73.3,60.8,49.7,52.0,48.2,44.0,85,66,41,30.37,30.19,7,1,1,0.00
2013-4-26,77.6,67.3,57.1,69.0,58.8,47.0,84,74,63,30.20,30.01,15,3,0,0.00
2013-4-27,80.0,69.8,56.5,69.0,64.1,55.0,95,83,64,30.09,29.98,14,3,0,0.01
2013-4-28,81.8,69.1,51.2,70.6,62.2,50.0,98,80,60,30.06,29.87,8,1,6,0.01
2013-4-29,83.3,71.2,56.9,69.0,62.5,56.0,97,75,52,29.94,29.80,12,3,0,0.01
2013-4-30,81.5,69.6,57.3,69.0,63.2,56.0,98,81,60,29.86,29.75,11,2,0,0.00
2013-5-1,82.7,71.0,61.9,71.0,65.2,61.0,97,83,62,29.95,29.80,8,2,0,0.00
2013-5-2,68.5,55.2,43.3,64.0,51.4,40.0,94,87,78,30.33,29.94,18,6,0,0.08
2013-5-3,66.5,51.0,39.7,42.0,37.9,34.0,85,64,31,30.31,30.06,17,4,6,0.08
2013-5-4,75.9,54.6,36.5,49.0,40.5,35.0,96,65,30,30.06,29.90,13,2,1,0.00
2013-5-5,66.6,54.1,41.7,51.0,45.2,39.0,92,74,52,30.17,30.04,16,2,2,0.00
2013-5-6,76.3,60.3,43.5,61.0,52.9,42.0,98,79,53,30.15,30.01,5,0,0,0.00
2013-5-7,84.7,69.4,53.3,68.0,57.4,52.0,99,71,36,30.09,29.94,9,1,0,0.00
2013-5-8,84.6,71.9,57.9,66.0,59.8,54.0,97,68,44,30.03,29.88,16,5,0,0.00
2013-5-9,70.6,66.7,62.6,69.0,65.6,62.0,99,96,91,30.01,29.83,12,3,0,0.39
2013-5-10,80.5,70.6,64.5,70.0,66.6,64.0,99,88,67,30.02,29.87,8,1,0,0.39
2013-5-11,77.6,67.1,57.3,66.0,57.7,52.0,99,75,42,30.16,30.00,15,3,0,0.00
2013-5-12,77.3,64.9,55.9,54.0,50.3,44.0,90,62,31,30.28,30.15,10,1,0,0.00
2013-5-13,84.4,66.8,48.8,62.0,53.2,46.0,98,67,35,30.27,30.14,9,3,0,0.00
2013-5-14,85.1,72.5,60.3,66.0,59.7,54.0,98,68,35,30.19,30.00,19,5,0,0.00
2013-5-15,73.0,69.3,65.2,70.0,67.6,65.0,99,94,86,30.07,29.81,14,6,0,0.26
2013-5-16,79.3,74.8,68.9,73.0,70.7,66.0,99,87,79,29.84,29.76,13,4,0,0.00
2013-5-17,89.2,78.4,70.3,78.0,73.7,70.0,100,86,65,29.88,29.78,12,3,0,0.01
2013-5-18,90.5,80.2,70.8,77.0,72.7,69.0,93,79,61,29.91,29.77,16,5,0,0.00
2013-5-19,89.1,78.2,68.2,75.0,71.4,68.0,99,81,59,29.86,29.70,20,6,0,0.00
2013-5-20,88.0,79.3,73.0,75.0,72.1,69.0,97,79,62,29.84,29.68,21,7,0,0.00
2013-5-21,86.0,72.3,63.3,76.0,66.7,-99.9,98,87,67,29.87,29.64,19,-15,0,0.05
2013-5-22,84.0,70.3,58.2,71.0,64.6,57.0,98,84,60,29.95,29.84,5,1,0,0.05
2013-5-23,86.3,76.1,67.1,77.0,72.2,67.0,100,88,68,30.05,29.88,10,2,0,0.00
2013-5-24,84.3,75.8,67.5,76.0,70.5,-99.9,97,86,73,30.18,30.00,8,-8,0,0.00
2013-5-25,82.2,73.5,67.3,75.0,70.3,67.0,98,90,72,30.15,30.04,11,2,0,0.02
2013-5-26,86.9,77.3,71.3,75.0,72.2,70.0,99,85,64,30.09,29.94,16,4,6,0.07
2013-5-27,86.1,78.0,70.3,74.0,71.1,70.0,99,81,62,30.00,29.81,16,5,0,0.00
2013-5-28,87.0,79.1,71.6,72.0,69.8,68.0,88,74,54,29.90,29.78,19,7,0,0.00
2013-5-29,83.9,76.0,70.4,74.0,71.8,70.0,99,87,71,29.84,29.73,16,6,0,0.00
2013-5-30,88.0,79.9,74.7,77.0,73.9,71.0,99,82,66,29.83,29.70,21,8,0,0.00
2013-5-31,90.7,81.9,74.8,77.0,74.8,73.0,99,80,60,29.85,29.69,16,6,0,0.00
2013-6-1,90.1,81.5,74.9,79.0,74.5,71.0,96,80,65,29.91,29.74,20,5,0,0.00
2013-6-2,85.5,74.0,62.3,72.0,64.9,57.0,99,77,44,30.05,29.91,10,1,0,0.29
2013-6-3,89.9,72.9,57.8,74.0,63.1,57.0,99,75,43,29.99,29.84,9,1,0,0.00
2013-6-4,90.2,77.0,65.6,76.0,70.0,65.0,99,81,54,29.96,29.78,12,4,0,0.00
2013-6-5,90.2,77.6,69.3,76.0,68.2,-99.9,99,79,55,29.91,29.70,13,-19,0,0.00
2013-6-6,77.1,72.3,66.6,74.0,69.4,65.0,97,90,79,29.93,29.77,8,2,0,0.45
2013-6-7,85.0,72.3,60.9,66.0,62.9,59.0,98,76,45,29.99,29.87,9,1,0,0.01
2013-6-8,89.8,74.1,58.2,73.0,63.5,58.0,100,74,44,29.94,29.80,9,1,0,0.00
2013-6-9,88.9,77.2,68.3,74.0,70.4,66.0,99,81,56,29.94,29.85,8,2,2,0.00
2013-6-10,97.8,81.2,67.0,80.0,70.3,65.0,100,74,39,29.97,29.88,11,3,0,0.00
2013-6-11,95.0,82.5,71.4,76.0,73.3,70.0,98,75,51,30.03,29.91,15,5,0,0.00
2013-6-12,94.5,81.9,73.9,79.0,74.2,70.0,100,81,50,30.05,29.91,15,4,0,0.00
2013-6-13,77.8,73.9,72.8,78.0,73.9,73.0,100,99,99,30.05,29.97,9,3,0,0.00
2013-6-14,97.4,91.7,75.3,77.0,74.2,72.0,98,57,45,29.95,29.85,7,2,6,0.00
2013-6-15,75.4,75.0,73.4,75.0,74.8,73.0,99,99,98,29.95,29.92,17,3,0,0.02
2013-8-16,89.9,84.4,76.3,70.0,67.0,64.0,65,56,47,30.05,29.94,10,2,0,0.00
2013-8-17,90.0,76.4,62.2,70.0,63.1,60.0,97,67,40,30.08,29.95,9,1,1,0.00
2013-8-18,92.0,76.2,61.3,75.0,63.6,60.0,99,70,37,30.08,29.97,6,1,0,0.00
2013-8-19,96.5,79.4,66.3,74.0,65.1,60.0,98,67,33,30.06,29.91,11,1,0,0.00
2013-8-20,95.9,78.7,65.1,76.0,67.3,62.0,99,74,35,30.04,29.93,9,1,0,0.00
2013-8-21,95.7,82.0,68.1,74.0,69.8,67.0,99,70,42,30.08,29.96,13,2,0,0.00
2013-8-22,97.4,85.1,73.5,77.0,71.9,67.0,98,67,45,30.08,29.91,9,2,0,0.00
2013-8-23,99.1,83.2,71.3,81.0,72.1,66.0,100,75,36,30.02,29.86,9,2,0,0.00
2013-8-24,98.5,85.0,72.5,77.0,72.9,69.0,99,70,39,30.04,29.94,10,1,0,0.00
2013-8-25,96.2,82.8,68.6,79.0,70.7,67.0,100,71,42,30.13,30.02,15,2,0,0.00
2013-8-26,94.2,82.6,71.5,74.0,70.9,68.0,99,70,43,30.14,30.02,17,4,0,0.00
2013-8-27,93.8,80.8,71.6,76.0,71.4,67.0,100,77,44,30.12,30.00,10,2,0,0.00
2013-8-28,96.2,81.7,69.9,76.0,69.8,67.0,99,71,43,30.09,29.96,9,1,0,0.00
2013-8-29,101.3,83.3,68.6,81.0,70.0,66.0,100,71,32,30.05,29.91,8,1,0,0.00
2013-8-30,102.3,91.7,73.2,75.0,68.4,64.0,89,50,32,29.99,29.84,7,2,8,0.00
2013-8-31,102.8,85.5,70.3,79.0,71.7,65.0,99,70,32,29.91,29.77,12,4,0,0.00
2013-9-1,103.0,89.1,74.8,77.0,72.0,68.0,98,60,35,29.89,29.74,12,4,0,0.00
2013-9-2,91.6,82.6,75.9,77.0,72.9,69.0,95,74,49,29.98,29.83,8,1,0,0.03
2013-9-3,101.0,82.9,72.8,77.0,68.0,-99.9,98,68,36,29.96,29.82,7,-20,0,0.00
2013-9-4,100.8,84.8,70.7,79.0,71.8,68.0,100,70,35,30.02,29.91,10,2,0,0.00
2013-9-5,98.9,85.5,70.2,77.0,71.1,68.0,97,65,36,30.09,29.96,7,2,0,0.00
2013-9-6,97.7,83.0,69.5,83.0,70.8,67.0,100,72,38,30.07,29.92,9,1,0,0.00
2013-9-7,99.2,84.6,69.7,76.0,70.9,63.0,99,67,31,30.03,29.89,11,2,0,0.00
2013-9-8,96.7,81.4,66.6,81.0,68.9,63.0,100,72,37,29.99,29.85,9,2,4,0.00
2013-9-9,96.7,82.3,68.7,77.0,69.8,66.0,95,68,39,30.00,29.89,14,3,0,0.00
2013-9-10,91.8,79.6,69.2,78.0,70.1,65.0,100,76,46,30.09,29.97,15,2,0,0.00
2013-9-11,95.3,84.4,69.9,77.0,72.4,69.0,98,69,47,30.11,29.97,13,2,0,0.06
2013-9-12,96.7,81.0,69.1,81.0,69.8,63.0,100,74,35,30.06,29.89,7,0,0,0.00
2013-9-13,94.0,77.0,71.1,72.0,67.6,65.0,87,74,43,29.95,29.92,6,0,0,0.00
2013-9-16,93.6,91.9,89.8,68.0,67.2,66.0,46,44,42,29.96,29.95,6,3,0,0.00
2013-9-17,95.4,85.0,72.9,73.0,68.8,66.0,82,60,39,30.07,29.91,11,2,0,0.00
2013-9-20,74.7,74.6,74.6,74.0,74.0,74.0,98,98,98,29.82,29.82,5,5,0,0.00
2013-10-10,82.1,72.7,64.3,67.0,63.7,63.0,99,76,53,29.94,29.91,10,3,0,0.00
2013-10-11,83.9,73.9,64.1,73.0,69.4,64.0,100,87,69,29.97,29.84,16,4,9,0.00
2013-10-12,84.7,70.2,66.4,78.0,66.0,-99.9,98,91,80,30.08,29.89,12,-21,7,0.09
2013-10-13,74.0,69.7,67.0,71.0,68.5,66.4,99,96,87,30.21,30.05,7,2,7,0.01
2013-10-14,69.7,69.7,69.7,69.0,69.0,69.0,97,96,96,30.14,30.12,3,1,0,0.02
2013-10-18,68.1,62.6,59.6,61.0,59.1,57.0,99,88,68,30.05,29.94,3,0,0,0.02
2013-10-19,63.9,52.9,44.0,59.0,46.3,42.0,99,81,49,30.23,30.05,11,2,0,0.00
2013-10-20,69.6,55.1,39.1,51.0,46.3,38.0,98,75,48,30.11,29.93,12,3,0,0.00
2013-10-21,77.3,63.0,54.3,69.0,58.4,51.0,96,85,72,30.09,29.94,10,3,0,0.00
2013-10-22,75.1,57.8,44.6,56.0,46.9,-99.9,100,75,37,30.19,30.05,7,-19,0,0.00
2013-10-23,82.8,64.2,46.7,60.0,52.1,45.0,94,68,38,30.16,30.06,9,2,0,0.00
2013-10-24,83.6,66.9,52.6,61.0,53.9,48.0,99,66,37,30.27,30.09,10,2,0,0.00
2013-10-25,68.4,58.4,50.1,59.0,51.9,47.0,99,81,57,30.42,30.27,10,2,0,0.00
2013-10-26,76.1,64.1,53.7,66.0,57.1,49.0,96,78,69,30.27,30.05,28,4,0,0.96
2013-10-27,66.0,62.0,58.8,64.0,60.7,58.0,99,95,88,30.14,30.04,7,0,0,0.10
2013-10-28,78.1,67.6,57.2,70.0,64.2,56.0,99,89,75,30.13,30.02,8,3,0,0.01
2013-10-29,78.0,71.9,68.1,72.0,69.2,67.0,99,91,81,30.11,30.01,11,4,0,0.00
2013-10-30,69.6,67.3,64.7,69.0,66.9,64.0,100,98,97,30.05,29.83,18,6,0,1.50
2013-10-31,77.4,68.3,51.6,71.0,59.3,48.0,99,77,38,29.90,29.69,15,4,0,0.09
2013-11-1,76.0,61.1,47.9,60.0,52.5,47.0,98,76,47,30.07,29.83,12,2,0,0.00
2013-11-2,67.8,56.0,42.4,50.0,44.3,39.0,98,68,36,30.29,30.08,13,2,0,0.00
2013-11-3,65.0,52.1,38.4,54.0,44.7,38.0,99,79,50,30.25,30.04,15,3,3,0.00
2013-11-4,61.4,57.2,53.0,61.0,54.6,47.0,98,91,72,30.14,30.05,12,2,0,0.65
2013-11-5,68.4,64.9,61.2,68.0,64.6,61.0,99,98,96,30.08,29.97,9,4,0,0.40
2013-11-6,69.5,57.0,44.5,69.0,54.9,43.0,99,93,78,30.38,29.98,12,3,0,0.03
2013-11-7,62.3,48.8,38.2,47.0,43.0,37.0,97,82,47,30.54,30.38,6,1,0,0.01
2013-11-8,63.4,53.2,41.7,51.9,46.3,40.6,98,79,52,30.42,30.17,8,2,12,0.00
2013-11-9,64.6,56.9,49.7,56.0,50.3,48.0,99,79,65,30.25,30.16,9,2,12,0.00
2013-11-10,65.5,55.3,47.9,56.0,51.3,46.0,99,88,55,30.37,30.24,4,0,0,0.00
2013-11-11,72.6,55.9,43.6,59.0,50.3,43.0,98,83,53,30.32,30.20,4,0,0,0.01
2013-11-12,56.0,48.1,34.0,56.0,41.8,31.0,98,80,52,30.71,30.30,18,6,0,0.00
2013-11-13,50.9,38.0,26.5,39.0,29.8,26.0,97,76,41,30.73,30.44,6,1,0,0.00
2013-11-14,60.2,46.3,28.5,48.0,37.3,27.0,96,73,43,30.44,30.09,11,3,0,0.00
2013-11-15,72.8,60.9,52.8,60.0,54.5,47.0,94,80,63,30.09,29.88,10,5,0,0.00
2013-11-16,76.1,69.1,60.7,71.0,66.2,59.0,98,90,74,29.91,29.73,18,7,10,0.00
2013-11-17,88.0,74.8,63.8,73.0,64.4,51.0,95,73,38,29.99,29.73,16,4,0,0.00
2013-11-18,75.1,63.8,52.7,50.0,43.2,36.0,74,49,29,30.19,29.99,8,2,0,0.00
2013-11-19,67.0,58.7,45.8,50.0,39.9,34.0,98,53,30,30.21,30.05,14,3,0,0.00
2013-11-20,62.4,55.0,43.1,55.0,45.0,36.0,98,70,53,30.08,29.96,15,3,0,0.00
2013-11-21,73.9,65.4,50.7,71.0,61.1,-99.9,97,91,77,30.15,29.98,13,-18,0,0.66
2013-11-22,50.5,38.7,36.3,49.0,37.8,35.0,97,96,95,30.45,30.16,18,8,0,1.58
2013-11-23,42.5,39.4,37.0,41.0,38.0,35.0,97,94,83,30.56,30.44,14,6,0,0.03
2013-11-24,39.0,35.3,32.9,35.0,30.7,26.0,93,83,64,30.59,30.41,14,4,0,0.26
2013-11-25,37.2,35.6,33.4,37.0,34.6,31.0,97,96,92,30.41,30.18,10,2,0,0.73
2013-11-26,49.2,40.6,35.8,40.0,35.4,32.0,96,82,62,30.38,30.15,18,3,0,0.00
2013-11-27,45.1,35.2,26.6,31.0,24.3,21.0,88,66,46,30.52,30.39,11,2,0,0.00
2013-11-28,51.9,36.8,25.3,35.0,28.2,23.0,95,74,44,30.53,30.42,11,1,0,0.00
2013-11-29,56.5,43.2,27.9,42.0,34.7,26.0,95,74,46,30.58,30.41,6,2,8,0.00
2013-11-30,65.2,52.0,42.2,53.0,44.1,36.8,99,75,57,30.41,30.20,14,4,11,0.00
2013-12-1,69.1,60.2,51.4,60.0,56.6,51.0,99,88,73,30.21,29.91,20,5,0,0.00
2013-12-2,67.0,55.0,44.9,58.0,51.5,44.0,98,88,67,29.91,29.70,9,1,0,0.01
2013-12-3,77.5,60.0,42.2,57.0,48.4,41.0,98,71,30,29.70,29.55,14,4,0,0.01
2013-12-4,76.3,66.1,55.6,66.0,61.3,53.0,98,85,68,29.83,29.63,17,4,0,0.00
2013-12-5,53.7,37.3,30.8,52.0,32.6,27.0,94,83,72,30.19,29.84,18,8,0,0.00
2013-12-6,33.0,29.9,26.1,32.0,28.2,23.0,96,93,87,30.54,30.13,11,2,0,0.71
2013-12-7,29.0,26.4,24.4,28.0,24.5,22.0,99,92,89,30.57,30.36,11,4,0,0.00
2013-12-8,37.2,33.1,28.8,36.0,31.9,28.0,97,95,92,30.34,30.12,1,0,0,0.01
2013-12-9,37.2,34.0,31.4,36.0,32.3,27.0,99,93,84,30.45,30.19,11,5,0,0.00
2013-12-10,40.4,29.8,21.3,27.0,23.6,19.0,92,78,59,30.59,30.43,11,1,0,0.00
2013-12-11,48.1,35.5,24.2,38.0,30.1,22.0,93,81,60,30.63,30.40,9,1,0,0.00
2013-12-12,49.9,37.2,26.4,41.0,31.3,25.0,98,81,52,30.66,30.38,6,1,0,0.00
2013-12-13,45.0,41.1,37.3,45.0,39.6,36.0,98,94,76,30.38,29.88,9,3,0,0.23
2013-12-14,46.9,41.4,31.0,46.0,39.3,29.0,99,92,79,30.39,29.86,16,4,0,0.00
2013-12-15,56.8,40.4,26.1,39.0,32.7,25.0,95,76,48,30.43,30.30,7,2,0,0.01
2013-12-16,65.1,48.9,36.6,41.0,36.5,33.0,85,65,35,30.33,30.21,15,4,0,0.00
2013-12-17,67.5,49.6,34.0,47.0,39.4,31.0,91,70,44,30.34,30.26,5,1,0,0.00
2013-12-18,68.3,51.0,34.4,51.0,43.1,33.0,96,77,47,30.32,30.08,19,4,0,0.00
2013-12-19,73.0,63.5,51.3,64.0,58.7,50.0,96,85,68,30.07,29.80,17,8,17,0.00
2013-12-20,71.6,64.2,42.4,67.0,60.8,41.0,95,88,76,29.88,29.75,14,3,16,0.13
2013-12-21,56.1,46.7,37.7,56.0,46.1,37.0,99,97,95,29.81,29.59,16,3,0,1.48
2013-12-22,49.6,39.8,31.8,49.0,36.4,28.0,99,88,74,30.43,29.82,15,3,0,0.00
2013-12-23,45.0,34.5,26.8,34.0,29.4,25.0,93,82,63,30.61,30.41,7,1,0,0.00
2013-12-24,52.0,38.6,25.4,38.0,31.6,24.0,95,78,54,30.60,30.33,14,2,0,0.01
2013-12-25,57.1,45.2,34.0,47.0,38.6,30.0,87,78,66,30.44,30.33,8,2,0,0.00
2013-12-26,52.8,40.9,31.1,41.0,36.2,30.0,98,84,62,30.50,30.38,6,0,0,0.00
2013-12-27,57.4,43.0,31.9,52.0,39.5,31.0,99,89,61,30.51,30.37,5,0,0,0.01
2013-12-28,59.0,46.0,32.7,45.0,37.5,32.0,97,75,49,30.37,30.03,8,2,0,0.00
2013-12-29,55.1,42.5,33.3,49.0,36.5,29.0,91,80,65,30.33,30.01,11,2,0,0.00
2013-12-30,42.3,35.1,30.4,29.0,26.4,24.0,83,71,58,30.46,30.29,12,1,0,0.00
2013-12-31,51.4,38.4,26.5,37.0,28.9,24.0,96,72,41,30.51,30.28,10,2,0,0.00
2014-1-1,66.1,49.7,34.1,53.0,42.5,32.0,93,78,61,30.27,29.94,23,6,0,0.00
2014-1-2,42.3,33.0,26.4,34.0,23.4,20.8,80,68,49,30.52,30.20,15,4,0,0.00